Flight Track Log - Related Links

Times and Time Zones

All times are in EDT time to prevent confusion due to time zone crossing. See the UAL1006 flight status page for this flight to view local times or setup timezone preferences in your user account.

Time Position Orientation Groundspeed Altitude Reporting Facility
EDT Latitude Longitude Course Direction KTS MPH feet Rate Location/Type
Sat 02:04:00 AM 7.3541 -76.3356 321° Northwest  Level FlightAware Approximate
Sat 02:05:00 AM 7.4492 -76.4140 321° Northwest  Level FlightAware Approximate
Sat 02:06:00 AM 7.5443 -76.4925 321° Northwest  Level FlightAware Approximate
Sat 02:07:00 AM 7.6392 -76.5713 321° Northwest  Level FlightAware Approximate
Sat 02:08:00 AM 7.7340 -76.6502 320° Northwest  Level FlightAware Approximate
Sat 02:09:00 AM 7.8288 -76.7291 320° Northwest  Level FlightAware Approximate
Sat 02:10:00 AM 7.9236 -76.8081 320° Northwest  Level FlightAware Approximate
Sat 02:11:00 AM 8.0183 -76.8871 320° Northwest  Level FlightAware Approximate
Sat 02:12:00 AM 8.1131 -76.9661 320° Northwest  Level FlightAware Approximate
Sat 02:13:00 AM 8.2078 -77.0452 320° Northwest  Level FlightAware Approximate
Sat 02:14:00 AM 8.3026 -77.1243 320° Northwest  Level FlightAware Approximate
Sat 02:15:00 AM 8.4013 -77.2068 320° Northwest  Level FlightAware Approximate
Sat 02:16:00 AM 8.5000 -77.2894 320° Northwest  Level FlightAware Approximate
Sat 02:17:00 AM 8.5987 -77.3719 320° Northwest  Level FlightAware Approximate
Sat 02:18:00 AM 8.6974 -77.4546 320° Northwest  Level FlightAware Approximate
Sat 02:19:00 AM 8.7961 -77.5372 320° Northwest  Level FlightAware Approximate
Sat 02:20:00 AM 8.8947 -77.6200 320° Northwest  Level FlightAware Approximate
Sat 02:21:00 AM 8.9933 -77.7027 320° Northwest  Level FlightAware Approximate
Sat 02:22:00 AM 9.0920 -77.7856 320° Northwest  Level FlightAware Approximate
Sat 02:23:00 AM 9.1905 -77.8684 320° Northwest  Level FlightAware Approximate
Sat 02:24:00 AM 9.2891 -77.9513 320° Northwest  Level FlightAware Approximate
Sat 02:25:00 AM 9.3877 -78.0343 320° Northwest  Level FlightAware Approximate
Sat 02:26:00 AM 9.4862 -78.1173 320° Northwest  Level FlightAware Approximate
Sat 02:27:00 AM 9.5847 -78.2003 320° Northwest  Level FlightAware Approximate
Sat 02:28:00 AM 9.6832 -78.2834 320° Northwest  Level FlightAware Approximate
Sat 02:29:00 AM 9.7817 -78.3665 320° Northwest  Level FlightAware Approximate
Sat 02:30:00 AM 9.8801 -78.4497 320° Northwest  Level FlightAware Approximate
Sat 02:31:00 AM 9.9785 -78.5330 320° Northwest  Level FlightAware Approximate
Sat 02:32:00 AM 10.0770 -78.6162 320° Northwest  Level FlightAware Approximate
Sat 02:33:00 AM 10.1753 -78.6996 320° Northwest  Level FlightAware Approximate
Sat 02:34:00 AM 10.2737 -78.7830 320° Northwest  Level FlightAware Approximate
Sat 02:35:00 AM 10.3721 -78.8664 320° Northwest  Level FlightAware Approximate
Sat 02:36:00 AM 10.4704 -78.9499 320° Northwest  Level FlightAware Approximate
Sat 02:37:00 AM 10.5687 -79.0335 320° Northwest  Level FlightAware Approximate
Sat 02:38:00 AM 10.6670 -79.1171 320° Northwest  Level FlightAware Approximate
Sat 02:39:00 AM 10.7652 -79.2007 320° Northwest  Level FlightAware Approximate
Sat 02:40:00 AM 10.8635 -79.2844 320° Northwest  Level FlightAware Approximate
Sat 02:41:00 AM 10.9617 -79.3682 320° Northwest  Level FlightAware Approximate
Sat 02:42:00 AM 11.0599 -79.4520 320° Northwest  Level FlightAware Approximate
Sat 02:43:00 AM 11.1581 -79.5359 320° Northwest  Level FlightAware Approximate
Sat 02:44:00 AM 11.2562 -79.6199 320° Northwest  Level FlightAware Approximate
Sat 02:45:00 AM 11.3543 -79.7038 320° Northwest  Level FlightAware Approximate
Sat 02:46:00 AM 11.4524 -79.7879 320° Northwest  Level FlightAware Approximate
Sat 02:47:00 AM 11.5505 -79.8720 320° Northwest  Level FlightAware Approximate
Sat 02:48:00 AM 11.6486 -79.9562 320° Northwest  Level FlightAware Approximate
Sat 02:49:00 AM 11.7466 -80.0404 320° Northwest  Level FlightAware Approximate
Sat 02:50:00 AM 11.8446 -80.1247 320° Northwest  Level FlightAware Approximate
Sat 02:51:00 AM 11.9426 -80.2090 320° Northwest  Level FlightAware Approximate
Sat 02:52:00 AM 12.0405 -80.2934 320° Northwest  Level FlightAware Approximate
Sat 02:53:00 AM 12.1384 -80.3779 320° Northwest  Level FlightAware Approximate
Sat 02:54:00 AM 12.2364 -80.4624 320° Northwest  Level FlightAware Approximate
Sat 02:55:00 AM 12.3342 -80.5470 320° Northwest  Level FlightAware Approximate
Sat 02:56:00 AM 12.4321 -80.6317 320° Northwest  Level FlightAware Approximate
Sat 02:57:00 AM 12.5299 -80.7164 320° Northwest  Level FlightAware Approximate
Sat 02:58:00 AM 12.6277 -80.8012 320° Northwest  Level FlightAware Approximate
Sat 02:59:00 AM 12.7255 -80.8861 320° Northwest  Level FlightAware Approximate
Sat 03:00:00 AM 12.8232 -80.9710 320° Northwest  Level FlightAware Approximate
Sat 03:01:00 AM 12.9209 -81.0560 320° Northwest  Level FlightAware Approximate
Sat 03:02:00 AM 13.0186 -81.1410 320° Northwest  Level FlightAware Approximate
Sat 03:03:00 AM 13.1163 -81.2261 320° Northwest  Level FlightAware Approximate
Sat 03:04:00 AM 13.2139 -81.3113 320° Northwest  Level FlightAware Approximate
Sat 03:05:00 AM 13.3115 -81.3966 320° Northwest  Level FlightAware Approximate
Sat 03:06:00 AM 13.4091 -81.4819 320° Northwest  Level FlightAware Approximate
Sat 03:07:00 AM 13.5066 -81.5673 320° Northwest  Level FlightAware Approximate
Sat 03:08:00 AM 13.6042 -81.6527 320° Northwest  Level FlightAware Approximate
Sat 03:09:00 AM 13.7017 -81.7383 320° Northwest  Level FlightAware Approximate
Sat 03:10:00 AM 13.7991 -81.8239 320° Northwest  Level FlightAware Approximate
Sat 03:11:00 AM 13.8966 -81.9095 320° Northwest  Level FlightAware Approximate
Sat 03:12:00 AM 13.9939 -81.9953 319° Northwest  Level FlightAware Approximate
Sat 03:13:00 AM 14.0913 -82.0811 319° Northwest  Level FlightAware Approximate
Sat 03:14:00 AM 14.1887 -82.1670 319° Northwest  Level FlightAware Approximate
Sat 03:15:00 AM 14.2860 -82.2530 319° Northwest  Level FlightAware Approximate
Sat 03:16:00 AM 14.3833 -82.3390 319° Northwest  Level FlightAware Approximate
Sat 03:17:00 AM 14.4804 -82.4252 319° Northwest  Level FlightAware Approximate
Sat 03:18:00 AM 14.5774 -82.5117 319° Northwest  Level FlightAware Approximate
Sat 03:19:00 AM 14.6744 -82.5982 319° Northwest  Level FlightAware Approximate
Sat 03:20:00 AM 14.7713 -82.6848 319° Northwest  Level FlightAware Approximate
Sat 03:21:00 AM 14.8683 -82.7714 319° Northwest  Level FlightAware Approximate
Sat 03:22:00 AM 14.9651 -82.8582 319° Northwest  Level FlightAware Approximate
Sat 03:23:00 AM 15.0620 -82.9450 319° Northwest  Level FlightAware Approximate
Sat 03:24:00 AM 15.1588 -83.0319 319° Northwest  Level FlightAware Approximate
Sat 03:25:00 AM 15.2556 -83.1189 319° Northwest  Level FlightAware Approximate
Sat 03:26:00 AM 15.3523 -83.2060 319° Northwest  Level FlightAware Approximate
Sat 03:27:00 AM 15.4490 -83.2931 319° Northwest  Level FlightAware Approximate
Sat 03:28:00 AM 15.5457 -83.3803 319° Northwest  Level FlightAware Approximate
Sat 03:29:00 AM 15.6424 -83.4676 319° Northwest  Level FlightAware Approximate
Sat 03:30:00 AM 15.7390 -83.5550 319° Northwest  Level FlightAware Approximate
Sat 03:31:00 AM 15.8356 -83.6425 319° Northwest  Level FlightAware Approximate
Sat 03:32:00 AM 15.9321 -83.7301 319° Northwest  Level FlightAware Approximate
Sat 03:33:00 AM 16.0286 -83.8177 319° Northwest  Level FlightAware Approximate
Sat 03:34:00 AM 16.1251 -83.9054 319° Northwest  Level FlightAware Approximate
Sat 03:35:00 AM 16.2215 -83.9932 319° Northwest  Level FlightAware Approximate
Sat 03:36:00 AM 16.3179 -84.0811 319° Northwest  Level FlightAware Approximate
Sat 03:37:00 AM 16.4143 -84.1691 319° Northwest  Level FlightAware Approximate
Sat 03:38:00 AM 16.5106 -84.2572 319° Northwest  Level FlightAware Approximate
Sat 03:39:00 AM 16.6069 -84.3454 319° Northwest  Level FlightAware Approximate
Sat 03:40:00 AM 16.7031 -84.4336 319° Northwest  Level FlightAware Approximate
Sat 03:41:00 AM 16.7993 -84.5219 319° Northwest  Level FlightAware Approximate
Sat 03:42:00 AM 16.8944 -84.6094 319° Northwest  Level FlightAware Approximate
Sat 03:43:00 AM 16.9895 -84.6969 319° Northwest  Level FlightAware Approximate
Sat 03:44:00 AM 17.0844 -84.7844 319° Northwest  Level FlightAware Approximate
Sat 03:45:00 AM 17.1794 -84.8721 319° Northwest  Level FlightAware Approximate
Sat 03:46:00 AM 17.2743 -84.9599 319° Northwest  Level FlightAware Approximate
Sat 03:47:00 AM 17.3692 -85.0478 319° Northwest  Level FlightAware Approximate
Sat 03:48:00 AM 17.4641 -85.1357 319° Northwest  Level FlightAware Approximate
Sat 03:49:00 AM 17.5591 -85.2235 319° Northwest  Level FlightAware Approximate
Sat 03:50:00 AM 17.6546 -85.3107 319° Northwest  Level FlightAware Approximate
Sat 03:51:00 AM 17.7501 -85.3980 319° Northwest  Level FlightAware Approximate
Sat 03:52:00 AM 17.8456 -85.4855 319° Northwest  Level FlightAware Approximate
Sat 03:53:00 AM 17.9410 -85.5730 319° Northwest  Level FlightAware Approximate
Sat 03:54:00 AM 18.0363 -85.6606 319° Northwest  Level FlightAware Approximate
Sat 03:55:00 AM 18.1317 -85.7483 319° Northwest  Level FlightAware Approximate
Sat 03:56:00 AM 18.2269 -85.8361 319° Northwest  Level FlightAware Approximate
Sat 03:57:00 AM 18.3222 -85.9240 319° Northwest  Level FlightAware Approximate
Sat 03:58:00 AM 18.4174 -86.0119 319° Northwest  Level FlightAware Approximate
Sat 03:59:00 AM 18.5126 -86.1000 319° Northwest  Level FlightAware Approximate
Sat 04:00:00 AM 18.6077 -86.1882 319° Northwest  Level FlightAware Approximate
Sat 04:01:00 AM 18.7024 -86.2762 319° Northwest  Level FlightAware Approximate
Sat 04:02:00 AM 18.7971 -86.3642 319° Northwest  Level FlightAware Approximate
Sat 04:03:00 AM 18.8918 -86.4523 319° Northwest  Level FlightAware Approximate
Sat 04:04:00 AM 18.9864 -86.5406 319° Northwest  Level FlightAware Approximate
Sat 04:05:00 AM 19.0800 -86.6300 317° Northwest  Level FlightAware Approximate
Sat 04:06:00 AM 19.1717 -86.7217 317° Northwest  Level FlightAware Approximate
Sat 04:07:00 AM 19.2650 -86.8117 318° Northwest  Level FlightAware Approximate
Sat 04:08:00 AM 19.3589 -86.9010 318° Northwest  Level FlightAware Approximate
Sat 04:09:00 AM 19.4528 -86.9903 318° Northwest  Level FlightAware Approximate
Sat 04:10:00 AM 19.5466 -87.0798 318° Northwest  Level FlightAware Approximate
Sat 04:11:00 AM 19.6404 -87.1694 318° Northwest  Level FlightAware Approximate
Sat 04:12:00 AM 19.7341 -87.2591 318° Northwest  Level FlightAware Approximate
Sat 04:13:00 AM 19.8278 -87.3489 318° Northwest  Level FlightAware Approximate
Sat 04:14:00 AM 19.9214 -87.4388 318° Northwest  Level FlightAware Approximate
Sat 04:15:00 AM 20.0151 -87.5288 318° Northwest  Level FlightAware Approximate
Sat 04:16:00 AM 20.1086 -87.6189 318° Northwest  Level FlightAware Approximate
Sat 04:17:00 AM 20.2021 -87.7091 318° Northwest  Level FlightAware Approximate
Sat 04:18:00 AM 20.2956 -87.7994 318° Northwest  Level FlightAware Approximate
Sat 04:19:00 AM 20.3890 -87.8898 318° Northwest  Level FlightAware Approximate
Sat 04:20:00 AM 20.4822 -87.9805 318° Northwest  Level FlightAware Approximate
Sat 04:21:00 AM 20.5754 -88.0714 318° Northwest  Level FlightAware Approximate
Sat 04:22:00 AM 20.6685 -88.1623 318° Northwest  Level FlightAware Approximate
Sat 04:23:00 AM 20.7616 -88.2534 318° Northwest  Level FlightAware Approximate
Sat 04:24:00 AM 20.8546 -88.3446 318° Northwest  Level FlightAware Approximate
Sat 04:25:00 AM 20.9475 -88.4359 317° Northwest  Level FlightAware Approximate
Sat 04:26:00 AM 21.0405 -88.5273 317° Northwest  Level FlightAware Approximate
Sat 04:27:00 AM 21.1333 -88.6188 317° Northwest  Level FlightAware Approximate
Sat 04:28:00 AM 21.2262 -88.7105 317° Northwest  Level FlightAware Approximate
Sat 04:29:00 AM 21.3190 -88.8021 319° Northwest  Level FlightAware Approximate
Sat 04:30:00 AM 21.4138 -88.8915 319° Northwest  Level FlightAware Approximate
Sat 04:31:00 AM 21.5085 -88.9810 319° Northwest  Level FlightAware Approximate
Sat 04:32:00 AM 21.6032 -89.0706 319° Northwest  Level FlightAware Approximate
Sat 04:33:00 AM 21.6936 -89.1653 315° West  Level FlightAware Approximate
Sat 04:34:00 AM 21.7969 -89.2362 327° Northwest  Level Estimated
Sat 04:35:00 AM 21.9001 -89.3073 327° Northwest  Level Estimated
Sat 04:36:00 AM 22.0032 -89.3784 327° Northwest  Level Estimated
Sat 04:37:00 AM 22.1064 -89.4497 327° Northwest  Level Estimated
Sat 04:38:00 AM 22.2095 -89.5210 327° Northwest  Level Estimated
Sat 04:39:00 AM 22.3125 -89.5925 327° Northwest  Level Estimated
Sat 04:40:00 AM 22.4156 -89.6640 327° Northwest  Level Estimated
Sat 04:41:00 AM 22.5186 -89.7357 327° Northwest  Level Estimated
Sat 04:42:00 AM 22.6216 -89.8075 327° Northwest  Level Estimated
Sat 04:43:00 AM 22.7245 -89.8794 327° Northwest  Level Estimated
Sat 04:44:00 AM 22.8274 -89.9514 327° Northwest  Level Estimated
Sat 04:45:00 AM 22.9303 -90.0235 327° Northwest  Level Estimated
Sat 04:46:00 AM 23.0332 -90.0957 327° Northwest  Level Estimated
Sat 04:47:00 AM 23.1360 -90.1680 327° Northwest  Level Estimated
Sat 04:48:00 AM 23.2388 -90.2404 327° Northwest  Level Estimated
Sat 04:49:00 AM 23.3415 -90.3130 327° Northwest  Level Estimated
Sat 04:50:00 AM 23.4442 -90.3857 327° Northwest  Level Estimated
Sat 04:51:00 AM 23.5469 -90.4584 327° Northwest  Level Estimated
Sat 04:52:00 AM 23.6496 -90.5313 327° Northwest  Level Estimated
Sat 04:53:00 AM 23.7522 -90.6043 327° Northwest  Level Estimated
Sat 04:54:00 AM 23.8548 -90.6774 327° Northwest  Level Estimated
Sat 04:55:00 AM 23.9573 -90.7507 327° Northwest  Level Estimated
Sat 04:56:00 AM 24.0598 -90.8240 327° Northwest  Level Estimated
Sat 04:57:00 AM 24.1623 -90.8975 327° Northwest  Level Estimated
Sat 04:58:00 AM 24.2647 -90.9710 327° Northwest  Level Estimated
Sat 04:59:00 AM 24.3671 -91.0447 327° Northwest  Level Estimated
Sat 05:00:00 AM 24.4695 -91.1186 327° Northwest  Level Estimated
Sat 05:01:00 AM 24.5723 -91.1929 327° Northwest  Level Estimated
Sat 05:02:00 AM 24.6751 -91.2673 327° Northwest  Level Estimated
Sat 05:03:00 AM 24.7779 -91.3418 327° Northwest  Level Estimated
Sat 05:04:00 AM 24.8806 -91.4165 327° Northwest  Level Estimated
Sat 05:05:00 AM 24.9833 -91.4913 327° Northwest  Level Estimated
Sat 05:06:00 AM 25.0859 -91.5662 327° Northwest  Level Estimated
Sat 05:07:00 AM 25.1885 -91.6412 327° Northwest  Level Estimated
Sat 05:08:00 AM 25.2911 -91.7164 326° Northwest  Level Estimated
Sat 05:09:00 AM 25.3962 -91.7936 326° Northwest  Level Estimated
Sat 05:10:00 AM 25.5014 -91.8710 326° Northwest  Level Estimated
Sat 05:11:00 AM 25.6065 -91.9485 326° Northwest  Level Estimated
Sat 05:12:00 AM 25.7115 -92.0262 326° Northwest  Level Estimated
Sat 05:13:00 AM 25.8165 -92.1040 326° Northwest  Level Estimated
Sat 05:14:00 AM 25.9215 -92.1819 326° Northwest  Level Estimated
Sat 05:15:00 AM 26.0264 -92.2599 326° Northwest  Level Estimated
Sat 05:16:00 AM 26.1313 -92.3381 326° Northwest  Level Estimated
Sat 05:17:00 AM 26.2362 -92.4165 326° Northwest  Level Estimated
Sat 05:18:00 AM 26.3405 -92.4947 326° Northwest  Level Estimated
Sat 05:19:00 AM 26.4457 -92.5736 326° Northwest  Level Estimated
Sat 05:19:32 AM 26.7411 -91.9622 326° Northwest 434 499 38,000  Level Houston Center
Sat 05:20:00 AM 26.5508 -92.6526 326° Northwest  Level Estimated
Sat 05:20:32 AM 26.8539 -92.0681 320° Northwest 438 504 38,000  Level Houston Center
Sat 05:21:00 AM 26.6533 -92.7299 326° Northwest  Level Estimated
Sat 05:21:32 AM 26.9494 -92.1522 322° Northwest 438 504 38,000  Level Houston Center
Sat 05:22:00 AM 26.7557 -92.8072 326° Northwest  Level Estimated
Sat 05:22:32 AM 27.0447 -92.2364 322° Northwest 437 503 38,000  Level Houston Center
Sat 05:23:00 AM 26.8580 -92.8847 326° Northwest  Level Estimated
Sat 05:23:32 AM 27.1375 -92.3247 320° Northwest 436 502 37,900  Level Houston Center
Sat 05:24:00 AM 26.9603 -92.9624 326° Northwest  Level Estimated
Sat 05:24:33 AM 27.2311 -92.4208 318° Northwest 443 510 38,000  Level Houston Center
Sat 05:25:33 AM 27.3264 -92.5061 322° Northwest 443 510 38,000  Level Houston Center
Sat 05:26:33 AM 27.4231 -92.5900 322° Northwest 442 509 38,000 -50 Level Houston Center
Sat 05:27:33 AM 27.5186 -92.6772 321° Northwest 442 509 37,900  Descending Houston Center
Sat 05:28:34 AM 27.6136 -92.7589 323° Northwest 437 503 38,000 50 Climbing Houston Center
Sat 05:29:34 AM 27.7089 -92.8436 322° Northwest 436 502 38,000 -50 Level Houston Center
Sat 05:30:34 AM 27.8025 -92.9306 321° Northwest 435 501 37,900  Descending Houston Center
Sat 05:31:34 AM 27.8969 -93.0150 322° Northwest 434 499 38,000 50 Climbing Houston Center
Sat 05:32:34 AM 27.9892 -93.1056 319° Northwest 435 501 38,000  Level Houston Center
Sat 05:33:35 AM 28.0831 -93.1986 319° Northwest 441 507 38,000  Level Houston Center
Sat 05:34:35 AM 28.1764 -93.2794 323° Northwest 433 498 38,000  Level Houston Center
Sat 05:35:35 AM 28.2708 -93.3681 320° Northwest 438 504 38,000  Level Houston Center
Sat 05:36:35 AM 28.3650 -93.4558 321° Northwest 439 505 38,000  Level Houston Center
Sat 05:37:35 AM 28.4586 -93.5431 321° Northwest 437 503 38,000 -397 Level Houston Center
Sat 05:38:36 AM 28.5517 -93.6308 320° Northwest 436 502 37,200 -1,140 Descending Houston Center
Sat 05:39:36 AM 28.6467 -93.7189 321° Northwest 439 505 35,700 -1,800 Descending Houston Center
Sat 05:40:36 AM 28.7422 -93.8083 321° Northwest 444 511 33,600 -1,900 Descending Houston Center
Sat 05:41:36 AM 28.8392 -93.9025 320° Northwest 456 525 31,900 -1,339 Descending Houston Center
Sat 05:42:37 AM 28.9386 -93.9947 321° Northwest 460 529 30,900 -893 Descending Houston Center
Sat 05:43:37 AM 29.0375 -94.0897 320° Northwest 466 536 30,100 -2,500 Descending Houston Center
Sat 05:44:37 AM 29.1361 -94.1847 320° Northwest 464 534 25,900 -3,750 Descending Houston Center
Sat 05:45:37 AM 29.2358 -94.2786 321° Northwest 466 536 22,600 -3,273 Descending Houston Center
Sat 05:46:38 AM 29.3300 -94.3753 318° Northwest 458 527 19,300 -3,223 Descending Houston Center
Sat 05:47:38 AM 29.4153 -94.4764 314° West 445 512 16,100 -3,000 Descending Houston Center
Sat 05:48:38 AM 29.4956 -94.5700 315° West 420 483 13,300 -2,600 Descending Houston Center
Sat 05:49:38 AM 29.5742 -94.6608 315° West 404 465 10,900 -1,700 Descending Houston Center
Sat 05:50:38 AM 29.6450 -94.7453 314° West 374 430 9,900 -496 Descending Houston Center
Sat 05:51:39 AM 29.7181 -94.8292 315° West 376 433 9,900 -893 Level Houston Center
Sat 05:52:39 AM 29.7750 -94.8975 314° West 309 356 8,100 -1,950 Descending Houston Center
Sat 05:53:39 AM 29.8300 -94.9614 315° West 286 329 6,000 -1,800 Descending Houston Center
Sat 05:54:39 AM 29.8769 -95.0303 308° West 282 325 4,500 -992 Descending Houston Center
Sat 05:55:40 AM 29.9122 -95.0989 301° West 253 291 4,000 -843 Descending Houston Center
Sat 05:56:40 AM 29.9450 -95.1589 302° West 227 261 2,800 -1,200 Descending Houston Center

Login

Don't have an account? Register now (free) for customized features, flight alerts, and more!